createdAt,value
2018-05-10T00:00:51.391Z,8.23
2018-05-10T00:03:19.152Z,7.97
2018-05-10T00:05:46.287Z,9.20
2018-05-10T00:08:13.388Z,8.70
2018-05-10T00:10:40.385Z,9.73
2018-05-10T00:13:07.378Z,11.03
2018-05-10T00:15:34.601Z,11.63
2018-05-10T00:18:02.368Z,11.17
2018-05-10T00:20:30.143Z,11.13
2018-05-10T00:22:57.113Z,9.77
2018-05-10T00:25:24.111Z,9.40
2018-05-10T00:27:51.190Z,8.83
2018-05-10T00:30:18.263Z,8.10
2018-05-10T00:32:45.263Z,8.90
2018-05-10T00:35:12.261Z,8.77
2018-05-10T00:37:39.254Z,8.87
2018-05-10T00:40:06.995Z,9.07
2018-05-10T00:42:34.003Z,8.63
2018-05-10T00:45:01.009Z,9.97
2018-05-10T00:47:28.026Z,12.10
2018-05-10T00:52:55.531Z,13.10
2018-05-10T00:55:22.553Z,14.77
2018-05-10T00:57:52.397Z,16.10
2018-05-10T01:00:19.361Z,17.97
2018-05-10T01:02:46.398Z,18.10
2018-05-10T01:05:13.411Z,18.27
2018-05-10T01:07:40.419Z,16.43
2018-05-10T01:10:07.428Z,17.30
2018-05-10T01:12:34.448Z,20.43
2018-05-10T01:15:01.432Z,19.37
2018-05-10T01:17:29.191Z,23.03
2018-05-10T01:19:56.184Z,26.57
2018-05-10T01:22:23.184Z,31.30
2018-05-10T01:24:50.156Z,27.13
2018-05-10T01:27:17.199Z,30.63
2018-05-10T01:29:44.914Z,23.97
2018-05-10T01:32:11.896Z,21.77
2018-05-10T01:34:40.233Z,21.87
2018-05-10T01:37:07.506Z,28.43
2018-05-10T01:39:34.499Z,22.60
2018-05-10T01:42:01.741Z,16.10
2018-05-10T01:44:28.726Z,14.83
2018-05-10T01:46:55.791Z,13.37
2018-05-10T01:49:23.669Z,14.47
2018-05-10T01:51:50.658Z,13.20
2018-05-10T01:54:17.661Z,15.80
2018-05-10T01:56:44.641Z,15.73
2018-05-10T01:59:11.643Z,15.83
2018-05-10T02:01:38.666Z,14.77
2018-05-10T02:04:05.783Z,14.83
2018-05-10T02:06:32.782Z,32.23
2018-05-10T02:08:59.743Z,14.83
2018-05-10T02:11:26.776Z,15.73
2018-05-10T02:13:53.750Z,13.97
2018-05-10T02:16:21.491Z,23.67
2018-05-10T02:18:48.483Z,18.27
2018-05-10T02:21:15.481Z,13.47
2018-05-10T02:23:42.496Z,11.80
2018-05-10T02:26:09.493Z,11.80
2018-05-10T02:28:36.471Z,13.83
2018-05-10T02:31:03.464Z,19.57
2018-05-10T02:33:30.461Z,13.40
2018-05-10T02:35:57.443Z,18.20
2018-05-10T02:38:24.419Z,17.37
2018-05-10T02:40:51.411Z,18.73
2018-05-10T02:43:18.434Z,17.23
2018-05-10T02:45:46.156Z,15.57
2018-05-10T02:48:13.203Z,15.70
2018-05-10T02:50:40.186Z,15.20
2018-05-10T02:53:07.911Z,18.63
2018-05-10T02:55:34.877Z,14.27
2018-05-10T02:58:01.961Z,13.60
2018-05-10T03:00:28.954Z,16.93
2018-05-10T03:02:55.926Z,14.37
2018-05-10T03:05:23.671Z,13.70
2018-05-10T03:07:50.654Z,12.30
2018-05-10T03:10:18.391Z,10.87
2018-05-10T03:12:45.386Z,13.13
2018-05-10T03:15:12.398Z,12.90
2018-05-10T03:17:40.158Z,15.33
2018-05-10T03:20:07.921Z,14.97
2018-05-10T03:22:34.923Z,14.70
2018-05-10T03:25:01.916Z,17.40
2018-05-10T03:27:28.946Z,16.00
2018-05-10T03:29:55.951Z,13.20
2018-05-10T03:32:22.946Z,12.60
2018-05-10T03:34:49.975Z,12.50
2018-05-10T03:37:17.003Z,12.97
2018-05-10T03:39:43.993Z,11.03
2018-05-10T03:42:11.004Z,11.60
2018-05-10T03:44:38.079Z,9.87
2018-05-10T03:47:05.183Z,12.80
2018-05-10T03:49:32.356Z,11.87
2018-05-10T03:51:59.359Z,9.87
2018-05-10T03:54:27.099Z,12.00
2018-05-10T03:56:54.067Z,11.73
2018-05-10T03:59:21.791Z,10.57
2018-05-10T04:01:48.761Z,9.27
2018-05-10T04:04:34.581Z,10.20
2018-05-10T04:07:20.572Z,8.70
2018-05-10T04:10:05.739Z,9.00
2018-05-10T04:12:32.940Z,9.00
2018-05-10T04:14:59.929Z,9.13
2018-05-10T04:17:27.644Z,11.83
2018-05-10T04:19:54.641Z,14.80
2018-05-10T04:22:22.370Z,16.77
2018-05-10T04:24:49.384Z,22.77
2018-05-10T04:27:16.354Z,18.43
2018-05-10T04:29:43.361Z,32.60
2018-05-10T04:32:10.332Z,37.40
2018-05-10T04:34:37.451Z,22.70
2018-05-10T04:37:04.459Z,30.30
2018-05-10T04:39:32.211Z,30.93
2018-05-10T04:41:59.214Z,26.90
2018-05-10T04:44:26.292Z,42.80
2018-05-10T04:46:53.372Z,25.30
2018-05-10T04:49:20.351Z,17.73
2018-05-10T04:51:47.384Z,39.90
2018-05-10T04:54:14.434Z,24.93
2018-05-10T04:56:41.487Z,19.60
2018-05-10T04:59:08.468Z,23.17
2018-05-10T05:01:35.455Z,33.80
2018-05-10T05:04:02.411Z,22.03
2018-05-10T05:06:30.129Z,29.93
2018-05-10T05:08:57.156Z,21.33
2018-05-10T05:11:24.159Z,32.87
2018-05-10T05:13:51.164Z,30.73
2018-05-10T05:16:18.143Z,28.57
2018-05-10T05:18:45.140Z,30.07
2018-05-10T05:21:12.137Z,23.33
2018-05-10T05:23:39.903Z,22.23
2018-05-10T05:26:06.901Z,19.73
2018-05-10T05:28:33.903Z,24.13
2018-05-10T05:31:00.981Z,27.23
2018-05-10T05:33:27.949Z,13.53
2018-05-10T05:35:54.956Z,13.20
2018-05-10T05:38:22.711Z,22.37
2018-05-10T05:40:50.463Z,34.27
2018-05-10T05:43:17.481Z,24.53
2018-05-10T05:45:44.459Z,27.83
2018-05-10T05:48:11.738Z,23.87
2018-05-10T05:50:38.761Z,28.80
2018-05-10T05:53:05.752Z,16.90
2018-05-10T05:55:32.786Z,14.13
2018-05-10T05:57:59.804Z,15.27
2018-05-10T06:00:26.831Z,13.93
2018-05-10T06:02:53.864Z,13.37
2018-05-10T06:05:20.863Z,12.87
2018-05-10T06:07:48.623Z,13.07
2018-05-10T06:10:16.371Z,12.70
2018-05-10T06:12:43.383Z,12.93
2018-05-10T06:15:10.366Z,11.47
2018-05-10T06:17:37.386Z,11.73
2018-05-10T06:20:04.546Z,11.90
2018-05-10T06:22:31.536Z,12.20
2018-05-10T06:24:58.572Z,12.07
2018-05-10T06:27:25.542Z,12.73
2018-05-10T06:29:52.529Z,12.07
2018-05-10T06:32:20.091Z,12.13
2018-05-10T06:34:47.241Z,11.30
2018-05-10T06:37:14.249Z,11.17
2018-05-10T06:39:41.231Z,11.57
2018-05-10T06:42:08.221Z,12.27
2018-05-10T06:44:35.221Z,11.90
2018-05-10T06:47:02.231Z,11.43
2018-05-10T06:49:29.257Z,11.37
2018-05-10T06:51:57.009Z,12.17
2018-05-10T06:54:24.034Z,11.50
2018-05-10T06:56:51.114Z,11.67
2018-05-10T06:59:18.829Z,11.23
2018-05-10T07:01:45.842Z,10.87
2018-05-10T07:04:12.834Z,11.23
2018-05-10T07:06:39.869Z,11.47
2018-05-10T07:09:07.003Z,10.57
2018-05-10T07:11:33.989Z,11.70
2018-05-10T07:14:00.983Z,12.00
2018-05-10T07:16:27.980Z,11.63
2018-05-10T07:18:54.955Z,11.83
2018-05-10T07:21:22.742Z,9.70
2018-05-10T07:23:49.771Z,10.90
2018-05-10T07:26:17.529Z,14.87
2018-05-10T07:28:45.262Z,10.10
2018-05-10T07:31:12.245Z,10.83
2018-05-10T07:33:39.999Z,10.27
2018-05-10T07:36:07.039Z,9.67
2018-05-10T07:38:34.045Z,10.20
2018-05-10T07:41:01.064Z,10.00
2018-05-10T07:43:28.070Z,9.90
2018-05-10T07:45:55.047Z,10.53
2018-05-10T07:48:22.851Z,10.33
2018-05-10T07:50:49.868Z,10.83
2018-05-10T07:53:16.876Z,10.80
2018-05-10T07:55:44.702Z,9.53
2018-05-10T07:58:11.712Z,9.67
2018-05-10T08:00:39.429Z,9.30
2018-05-10T08:03:06.459Z,9.90
2018-05-10T08:05:33.451Z,9.50
2018-05-10T08:08:00.470Z,9.43
2018-05-10T08:10:27.455Z,8.50
2018-05-10T08:12:54.459Z,9.07
2018-05-10T08:15:21.455Z,8.90
2018-05-10T08:17:48.605Z,9.27
2018-05-10T08:20:16.374Z,9.13
2018-05-10T08:22:44.135Z,8.77
2018-05-10T08:25:11.161Z,9.03
2018-05-10T08:27:46.187Z,8.47
2018-05-10T08:30:13.255Z,8.30
2018-05-10T08:32:41.937Z,8.13
2018-05-10T08:35:09.030Z,8.00
2018-05-10T08:37:36.007Z,7.93
2018-05-10T08:40:03.193Z,7.70
2018-05-10T08:42:30.172Z,12.57
2018-05-10T08:44:57.213Z,6.70
2018-05-10T08:47:24.209Z,7.30
2018-05-10T08:49:52.010Z,8.67
2018-05-10T08:52:19.012Z,7.20
2018-05-10T08:54:46.052Z,6.55
2018-05-10T08:57:13.101Z,7.37
2018-05-10T08:59:40.126Z,6.47
2018-05-10T09:02:07.631Z,6.37
2018-05-10T09:04:34.694Z,6.47
2018-05-10T09:07:01.679Z,7.03
2018-05-10T09:09:28.694Z,6.82
2018-05-10T09:11:55.659Z,6.95
2018-05-10T09:14:23.419Z,7.00
2018-05-10T09:16:51.166Z,6.40
2018-05-10T09:19:18.650Z,7.50
2018-05-10T09:21:45.634Z,6.75
2018-05-10T09:24:12.659Z,6.50
2018-05-10T09:26:39.644Z,6.28
2018-05-10T09:29:06.624Z,5.20
2018-05-10T09:31:34.418Z,5.57
2018-05-10T09:34:01.427Z,5.90
2018-05-10T09:36:28.449Z,5.93
2018-05-10T09:38:55.454Z,5.78
2018-05-10T09:41:22.427Z,6.12
2018-05-10T09:43:49.446Z,5.90
2018-05-10T09:46:16.550Z,5.55
2018-05-10T09:48:43.510Z,5.85
2018-05-10T09:51:11.294Z,5.30
2018-05-10T09:53:38.382Z,5.20
2018-05-10T09:56:05.374Z,5.40
2018-05-10T09:58:33.202Z,5.47
2018-05-10T10:01:00.252Z,5.55
2018-05-10T10:03:27.276Z,5.43
2018-05-10T10:05:54.269Z,5.75
2018-05-10T10:08:21.307Z,5.32
2018-05-10T10:10:48.466Z,5.85
2018-05-10T10:13:15.534Z,5.62
2018-05-10T10:15:42.612Z,6.40
2018-05-10T10:18:09.689Z,5.72
2018-05-10T10:20:36.742Z,5.93
2018-05-10T10:23:03.811Z,6.07
2018-05-10T10:25:30.869Z,6.20
2018-05-10T10:27:58.005Z,5.90
2018-05-10T10:30:25.042Z,5.60
2018-05-10T10:32:52.149Z,5.07
2018-05-10T10:35:19.236Z,5.37
2018-05-10T10:37:46.281Z,5.62
2018-05-10T10:40:13.290Z,5.87
2018-05-10T10:42:40.298Z,5.65
2018-05-10T10:45:07.342Z,5.35
2018-05-10T10:47:34.359Z,5.75
2018-05-10T10:50:01.360Z,5.80
2018-05-10T10:52:28.352Z,5.07
2018-05-10T10:54:55.374Z,5.35
2018-05-10T10:57:22.401Z,5.60
2018-05-10T10:59:49.445Z,5.20
2018-05-10T11:02:16.466Z,6.05
2018-05-10T11:04:43.516Z,6.05
2018-05-10T11:07:10.491Z,5.62
2018-05-10T11:09:37.504Z,5.70
2018-05-10T11:12:04.545Z,5.40
2018-05-10T11:14:31.568Z,5.35
2018-05-10T11:16:58.594Z,5.32
2018-05-10T11:19:25.671Z,4.80
2018-05-10T11:21:52.701Z,5.28
2018-05-10T11:24:19.699Z,4.90
2018-05-10T11:26:46.676Z,5.40
2018-05-10T11:29:13.699Z,5.57
2018-05-10T11:31:41.434Z,5.20
2018-05-10T11:34:08.426Z,5.40
2018-05-10T11:36:35.452Z,5.20
2018-05-10T11:39:03.510Z,5.00
2018-05-10T11:41:30.481Z,5.10
2018-05-10T11:43:58.250Z,5.25
2018-05-10T11:46:25.249Z,5.15
2018-05-10T11:48:52.284Z,5.12
2018-05-10T11:51:20.045Z,5.53
2018-05-10T11:53:47.068Z,6.30
2018-05-10T11:56:14.097Z,5.43
2018-05-10T11:58:41.893Z,5.90
2018-05-10T12:01:08.952Z,5.57
2018-05-10T12:03:35.967Z,5.97
2018-05-10T12:06:03.048Z,5.73
2018-05-10T12:08:30.104Z,5.57
2018-05-10T12:10:57.123Z,6.10
2018-05-10T12:13:24.159Z,5.77
2018-05-10T12:15:51.949Z,5.53
2018-05-10T12:18:19.017Z,5.90
2018-05-10T12:20:46.035Z,6.13
2018-05-10T12:23:13.090Z,5.90
2018-05-10T12:25:40.582Z,5.87
2018-05-10T12:28:07.519Z,6.23
2018-05-10T12:30:34.569Z,5.70
2018-05-10T12:33:01.573Z,6.03
2018-05-10T12:35:28.587Z,6.23
2018-05-10T12:37:56.334Z,6.23
2018-05-10T12:40:24.117Z,5.27
2018-05-10T12:42:51.152Z,5.20
2018-05-10T12:45:18.194Z,5.40
2018-05-10T12:47:45.217Z,5.10
2018-05-10T12:50:12.226Z,6.73
2018-05-10T12:52:39.987Z,6.23
2018-05-10T12:55:07.012Z,6.97
2018-05-10T12:57:34.074Z,6.50
2018-05-10T13:00:02.012Z,7.30
2018-05-10T13:02:29.060Z,6.77
2018-05-10T13:04:56.087Z,6.10
2018-05-10T13:07:23.428Z,5.67
2018-05-10T13:09:50.469Z,6.00
2018-05-10T13:12:17.564Z,5.80
2018-05-10T13:14:44.599Z,6.20
2018-05-10T13:17:11.867Z,6.33
2018-05-10T13:19:38.910Z,6.30
2018-05-10T13:22:05.930Z,7.17
2018-05-10T13:24:33.687Z,7.40
2018-05-10T13:27:00.684Z,9.43
2018-05-10T13:29:28.478Z,6.93
2018-05-10T13:31:56.209Z,6.40
2018-05-10T13:34:23.192Z,6.57
2018-05-10T13:36:50.212Z,6.50
2018-05-10T13:39:17.972Z,7.93
2018-05-10T13:41:44.999Z,7.13
2018-05-10T13:44:12.065Z,7.60
2018-05-10T13:46:39.179Z,8.03
2018-05-10T13:49:06.221Z,8.60
2018-05-10T13:51:33.279Z,7.83
2018-05-10T13:54:00.305Z,8.93
2018-05-10T13:56:27.409Z,8.73
2018-05-10T13:58:54.552Z,8.63
2018-05-10T14:01:22.327Z,13.80
2018-05-10T14:03:49.329Z,9.23
2018-05-10T14:06:16.341Z,7.50
2018-05-10T14:08:44.890Z,8.43
2018-05-10T14:11:11.987Z,7.90
2018-05-10T14:13:42.426Z,8.10
2018-05-10T14:16:09.907Z,8.63
2018-05-10T14:18:37.512Z,8.50
2018-05-10T14:21:05.143Z,9.03
2018-05-10T14:23:32.945Z,8.53
2018-05-10T14:26:00.368Z,9.47
2018-05-10T14:28:27.712Z,8.67
2018-05-10T14:30:55.007Z,8.53
2018-05-10T14:33:25.209Z,8.20
2018-05-10T14:35:53.364Z,8.50
2018-05-10T14:38:21.433Z,8.20
2018-05-10T14:40:48.792Z,7.60
2018-05-10T14:43:17.048Z,9.30
2018-05-10T14:45:44.389Z,10.60
2018-05-10T14:48:11.564Z,7.00
2018-05-10T14:50:38.707Z,8.00
2018-05-10T14:53:05.772Z,8.13
2018-05-10T14:55:32.846Z,7.87
2018-05-10T14:58:00.711Z,8.57
2018-05-10T15:00:28.723Z,7.83
2018-05-10T15:02:56.808Z,8.53
2018-05-10T15:05:23.924Z,8.67
2018-05-10T15:07:51.247Z,8.63
2018-05-10T15:10:19.377Z,8.63
2018-05-10T15:12:46.441Z,7.90
2018-05-10T15:15:13.499Z,8.17
2018-05-10T15:17:40.594Z,7.60
2018-05-10T15:20:08.728Z,7.67
2018-05-10T15:22:35.884Z,7.27
2018-05-10T15:25:03.235Z,7.60
2018-05-10T15:27:30.350Z,6.63
2018-05-10T15:29:57.430Z,7.00
2018-05-10T15:32:24.526Z,6.70
2018-05-10T15:34:52.352Z,5.93
2018-05-10T15:37:19.452Z,6.60
2018-05-10T15:39:46.494Z,6.07
2018-05-10T15:42:13.571Z,6.00
2018-05-10T15:44:40.634Z,6.70
2018-05-10T15:47:07.718Z,6.73
2018-05-10T15:49:34.739Z,6.20
2018-05-10T15:52:01.778Z,6.60
2018-05-10T15:54:28.844Z,6.43
2018-05-10T15:56:55.889Z,5.80
2018-05-10T15:59:22.884Z,6.33
2018-05-10T16:01:50.005Z,6.90
2018-05-10T16:04:17.039Z,6.63
2018-05-10T16:06:44.237Z,6.73
2018-05-10T16:09:11.204Z,6.80
2018-05-10T16:11:38.207Z,7.03
2018-05-10T16:14:05.974Z,7.97
2018-05-10T16:16:33.059Z,7.93
2018-05-10T16:19:00.041Z,7.33
2018-05-10T16:21:27.082Z,7.53
2018-05-10T16:23:54.114Z,7.47
2018-05-10T16:26:21.195Z,7.57
2018-05-10T16:28:48.317Z,7.10
2018-05-10T16:31:15.329Z,8.53
2018-05-10T16:33:42.302Z,8.20
2018-05-10T16:36:09.342Z,9.20
2018-05-10T16:38:36.854Z,7.57
2018-05-10T16:41:04.052Z,6.83
2018-05-10T16:43:31.190Z,7.03
2018-05-10T16:45:58.249Z,6.07
2018-05-10T16:48:25.273Z,6.37
2018-05-10T16:50:52.351Z,6.90
2018-05-10T16:53:19.451Z,7.20
2018-05-10T16:55:46.514Z,7.67
2018-05-10T16:58:13.558Z,7.20
2018-05-10T17:00:40.647Z,7.30
2018-05-10T17:03:07.712Z,7.53
2018-05-10T17:05:34.797Z,7.47
2018-05-10T17:08:01.953Z,7.63
2018-05-10T17:10:29.195Z,7.30
2018-05-10T17:12:56.312Z,8.47
2018-05-10T17:15:23.414Z,7.97
2018-05-10T17:17:50.497Z,8.07
2018-05-10T17:20:17.605Z,9.27
2018-05-10T17:22:44.914Z,9.17
2018-05-10T17:25:11.977Z,8.97
2018-05-10T17:27:39.051Z,9.00
2018-05-10T17:30:06.129Z,9.13
2018-05-10T17:32:33.213Z,9.50
2018-05-10T17:35:00.276Z,8.67
2018-05-10T17:37:28.119Z,8.70
2018-05-10T17:39:55.194Z,9.00
2018-05-10T17:42:23.389Z,8.10
2018-05-10T17:44:50.511Z,7.77
2018-05-10T17:47:18.341Z,7.77
2018-05-10T17:49:45.364Z,8.13
2018-05-10T17:52:13.181Z,8.23
2018-05-10T17:54:40.218Z,7.80
2018-05-10T17:57:07.328Z,7.77
2018-05-10T17:59:34.386Z,7.63
2018-05-10T18:02:02.191Z,8.80
2018-05-10T18:04:29.326Z,8.60
2018-05-10T18:06:56.381Z,9.53
2018-05-10T18:09:23.476Z,9.20
2018-05-10T18:11:51.385Z,9.30
2018-05-10T18:14:18.446Z,10.90
2018-05-10T18:16:45.454Z,11.00
2018-05-10T18:19:12.491Z,10.63
2018-05-10T18:21:39.504Z,10.73
2018-05-10T18:24:06.502Z,11.07
2018-05-10T18:26:33.501Z,11.07
2018-05-10T18:29:00.568Z,12.20
2018-05-10T18:31:27.609Z,11.70
2018-05-10T18:33:55.356Z,10.70
2018-05-10T18:36:22.409Z,10.97
2018-05-10T18:38:49.442Z,8.97
2018-05-10T18:41:16.519Z,10.30
2018-05-10T18:43:44.347Z,10.60
2018-05-10T18:46:11.384Z,9.30
2018-05-10T18:48:38.406Z,7.93
2018-05-10T18:51:05.407Z,8.40
2018-05-10T18:53:32.397Z,9.77
2018-05-10T18:55:59.441Z,9.00
2018-05-10T18:58:26.442Z,10.63
2018-05-10T19:00:53.469Z,10.97
2018-05-10T19:03:20.493Z,12.60
2018-05-10T19:05:47.514Z,11.83
2018-05-10T19:08:15.289Z,12.83
2018-05-10T19:10:42.339Z,12.37
2018-05-10T19:13:09.399Z,11.87
2018-05-10T19:15:36.411Z,13.00
2018-05-10T19:18:05.211Z,12.37
2018-05-10T19:20:33.047Z,12.40
2018-05-10T19:23:00.190Z,11.93
2018-05-10T19:25:27.947Z,11.60
2018-05-10T19:27:55.167Z,12.47
2018-05-10T19:30:23.069Z,12.50
2018-05-10T19:32:50.109Z,12.27
2018-05-10T19:35:17.222Z,12.37
2018-05-10T19:37:44.324Z,11.87
2018-05-10T19:40:12.231Z,11.47
2018-05-10T19:42:39.329Z,10.97
2018-05-10T19:45:06.473Z,10.77
2018-05-10T19:47:33.587Z,11.10
2018-05-10T19:50:01.431Z,10.53
2018-05-10T19:52:29.387Z,12.00
2018-05-10T19:54:57.290Z,11.50
2018-05-10T19:57:24.387Z,9.97
2018-05-10T19:59:51.512Z,10.57
2018-05-10T20:02:18.639Z,11.03
2018-05-10T20:04:45.834Z,10.70
2018-05-10T20:07:13.044Z,11.43
2018-05-10T20:09:40.148Z,11.50
2018-05-10T20:12:07.337Z,11.90
2018-05-10T20:14:34.419Z,12.63
2018-05-10T20:17:02.536Z,13.67
2018-05-10T20:19:30.422Z,13.33
2018-05-10T20:21:57.651Z,14.00
2018-05-10T20:24:25.509Z,14.30
2018-05-10T20:26:53.404Z,13.87
2018-05-10T20:29:20.492Z,14.43
2018-05-10T20:31:47.534Z,14.07
2018-05-10T20:34:14.554Z,12.87
2018-05-10T20:36:41.622Z,13.00
2018-05-10T20:39:08.746Z,14.80
2018-05-10T20:41:35.931Z,13.27
2018-05-10T20:44:03.137Z,13.80
2018-05-10T20:46:30.934Z,12.23
2018-05-10T20:48:57.987Z,12.57
2018-05-10T20:51:24.992Z,13.73
2018-05-10T20:53:52.765Z,13.70
2018-05-10T20:56:20.554Z,14.20
2018-05-10T20:58:47.589Z,12.97
2018-05-10T21:01:14.619Z,11.77
2018-05-10T21:03:42.502Z,12.20
2018-05-10T21:06:10.036Z,12.63
2018-05-10T21:08:37.833Z,14.00
2018-05-10T21:11:04.899Z,14.00
2018-05-10T21:13:31.984Z,11.77
2018-05-10T21:15:59.085Z,12.50
2018-05-10T21:18:26.137Z,12.63
2018-05-10T21:20:53.166Z,12.90
2018-05-10T21:23:20.206Z,13.50
2018-05-10T21:25:47.269Z,14.00
2018-05-10T21:28:14.311Z,15.47
2018-05-10T21:30:41.714Z,15.17
2018-05-10T21:33:08.781Z,14.97
2018-05-10T21:35:36.681Z,15.33
2018-05-10T21:38:03.874Z,13.37
2018-05-10T21:40:30.969Z,13.37
2018-05-10T21:42:58.140Z,13.53
2018-05-10T21:45:25.849Z,14.63
2018-05-10T21:47:52.836Z,15.57
2018-05-10T21:50:20.032Z,14.30
2018-05-10T21:52:47.042Z,14.37
2018-05-10T21:55:14.201Z,14.53
2018-05-10T21:57:41.211Z,14.83
2018-05-10T22:00:08.266Z,13.77
2018-05-10T22:02:35.343Z,14.10
2018-05-10T22:05:02.383Z,12.87
2018-05-10T22:07:29.411Z,12.67
2018-05-10T22:09:57.285Z,11.20
2018-05-10T22:12:24.274Z,11.60
2018-05-10T22:14:51.343Z,13.37
2018-05-10T22:17:18.419Z,14.63
2018-05-10T22:19:45.421Z,12.80
2018-05-10T22:22:12.469Z,10.37
2018-05-10T22:24:39.466Z,10.60
2018-05-10T22:27:07.201Z,11.50
2018-05-10T22:29:34.206Z,12.80
2018-05-10T22:32:01.240Z,12.60
2018-05-10T22:34:28.244Z,13.10
2018-05-10T22:36:55.261Z,13.80
2018-05-10T22:39:22.308Z,13.17
2018-05-10T22:41:49.426Z,11.40
2018-05-10T22:44:16.635Z,17.20
2018-05-10T22:46:43.569Z,11.90
2018-05-10T22:49:10.581Z,14.30
2018-05-10T22:51:37.589Z,23.17
2018-05-10T22:54:05.373Z,23.20
2018-05-10T22:56:32.414Z,18.17
2018-05-10T22:59:00.203Z,11.57
2018-05-10T23:01:27.306Z,10.40
2018-05-10T23:03:55.086Z,14.03
2018-05-10T23:06:22.921Z,12.93
2018-05-10T23:08:49.951Z,12.03
2018-05-10T23:11:17.006Z,14.50
2018-05-10T23:13:44.046Z,14.30
2018-05-10T23:16:11.271Z,15.00
2018-05-10T23:18:38.403Z,13.87
2018-05-10T23:21:06.141Z,14.03
2018-05-10T23:23:33.218Z,14.90
2018-05-10T23:26:01.044Z,14.73
2018-05-10T23:28:28.180Z,14.30
2018-05-10T23:30:55.169Z,13.13
2018-05-10T23:33:23.474Z,21.97
2018-05-10T23:35:50.496Z,12.57
2018-05-10T23:38:18.255Z,18.27
2018-05-10T23:40:45.991Z,30.90
2018-05-10T23:43:12.986Z,21.10
2018-05-10T23:45:39.999Z,23.47
2018-05-10T23:48:07.031Z,14.17
2018-05-10T23:50:35.674Z,15.37
2018-05-10T23:53:02.664Z,15.13
2018-05-10T23:55:29.696Z,13.90
2018-05-10T23:57:56.691Z,13.90
